createdAt,value
2018-11-06T00:01:18.664Z,9.18
2018-11-06T00:03:53.287Z,9.10
2018-11-06T00:06:22.994Z,9.00
2018-11-06T00:08:52.915Z,8.98
2018-11-06T00:11:22.698Z,8.94
2018-11-06T00:13:52.358Z,9.08
2018-11-06T00:16:22.076Z,9.13
2018-11-06T00:18:51.738Z,9.14
2018-11-06T00:21:21.517Z,9.13
2018-11-06T00:23:51.396Z,9.04
2018-11-06T00:26:21.336Z,9.04
2018-11-06T00:28:51.058Z,9.02
2018-11-06T00:31:20.838Z,9.05
2018-11-06T00:33:50.533Z,9.10
2018-11-06T00:36:20.381Z,9.06
2018-11-06T00:38:50.766Z,9.09
2018-11-06T00:41:20.539Z,9.03
2018-11-06T00:43:50.683Z,9.03
2018-11-06T00:46:20.663Z,9.10
2018-11-06T00:48:50.606Z,9.07
2018-11-06T00:51:20.442Z,9.08
2018-11-06T00:53:50.636Z,9.35
2018-11-06T00:56:20.314Z,9.22
2018-11-06T00:58:50.013Z,9.36
2018-11-06T01:01:19.683Z,9.42
2018-11-06T01:03:54.684Z,9.34
2018-11-06T01:06:24.626Z,9.36
2018-11-06T01:08:54.460Z,9.37
2018-11-06T01:11:24.300Z,9.35
2018-11-06T01:13:54.094Z,9.40
2018-11-06T01:16:24.136Z,9.37
2018-11-06T01:18:53.850Z,9.35
2018-11-06T01:21:23.662Z,9.41
2018-11-06T01:23:53.465Z,9.45
2018-11-06T01:26:23.434Z,9.31
2018-11-06T01:28:53.338Z,9.47
2018-11-06T01:31:23.110Z,9.61
2018-11-06T01:33:53.078Z,9.50
2018-11-06T01:36:22.906Z,9.50
2018-11-06T01:38:55.129Z,9.49
2018-11-06T01:41:24.909Z,9.40
2018-11-06T01:43:54.595Z,9.33
2018-11-06T01:46:25.168Z,9.40
2018-11-06T01:48:55.176Z,9.44
2018-11-06T01:51:25.019Z,9.33
2018-11-06T01:53:54.929Z,9.35
2018-11-06T01:56:24.613Z,9.34
2018-11-06T01:58:54.683Z,9.41
2018-11-06T02:01:24.849Z,9.31
2018-11-06T02:03:55.019Z,9.36
2018-11-06T02:06:24.913Z,9.41
2018-11-06T02:08:54.689Z,9.39
2018-11-06T02:11:24.725Z,9.41
2018-11-06T02:13:54.906Z,9.29
2018-11-06T02:16:24.738Z,9.32
2018-11-06T02:18:54.558Z,9.33
2018-11-06T02:21:24.302Z,9.38
2018-11-06T02:23:54.125Z,9.35
2018-11-06T02:26:24.034Z,9.30
2018-11-06T02:28:54.601Z,9.26
2018-11-06T02:31:24.431Z,9.23
2018-11-06T02:33:54.306Z,9.26
2018-11-06T02:36:24.169Z,9.23
2018-11-06T02:38:53.995Z,9.26
2018-11-06T02:41:23.777Z,9.25
2018-11-06T02:43:54.161Z,9.28
2018-11-06T02:46:23.973Z,9.19
2018-11-06T02:48:53.843Z,9.22
2018-11-06T02:51:23.713Z,9.33
2018-11-06T02:53:53.480Z,9.27
2018-11-06T02:56:24.839Z,9.36
2018-11-06T02:58:54.546Z,9.42
2018-11-06T03:01:24.860Z,9.51
2018-11-06T03:03:55.912Z,9.59
2018-11-06T03:06:25.835Z,9.73
2018-11-06T03:08:56.385Z,9.79
2018-11-06T03:11:26.088Z,9.79
2018-11-06T03:13:56.223Z,9.82
2018-11-06T03:16:25.951Z,9.86
2018-11-06T03:18:55.756Z,9.98
2018-11-06T03:21:25.628Z,9.96
2018-11-06T03:23:55.354Z,9.96
2018-11-06T03:26:25.071Z,9.96
2018-11-06T03:28:54.732Z,9.81
2018-11-06T03:31:24.482Z,9.81
2018-11-06T03:33:54.150Z,9.80
2018-11-06T03:36:23.991Z,9.82
2018-11-06T03:38:53.733Z,9.79
2018-11-06T03:41:23.473Z,10.02
2018-11-06T03:43:53.173Z,10.22
2018-11-06T03:46:23.046Z,10.33
2018-11-06T03:48:52.960Z,10.34
2018-11-06T03:51:22.893Z,10.14
2018-11-06T03:53:52.805Z,10.24
2018-11-06T03:56:22.657Z,10.20
2018-11-06T03:58:52.739Z,10.33
2018-11-06T04:01:22.452Z,10.35
2018-11-06T04:03:52.395Z,10.28
2018-11-06T04:06:22.131Z,10.36
2018-11-06T04:08:58.591Z,10.28
2018-11-06T04:11:28.510Z,10.36
2018-11-06T04:13:58.361Z,10.52
2018-11-06T04:16:29.271Z,10.55
2018-11-06T04:18:59.300Z,10.66
2018-11-06T04:21:33.152Z,10.64
2018-11-06T04:24:03.020Z,10.55
2018-11-06T04:26:33.098Z,10.47
2018-11-06T04:29:03.039Z,10.41
2018-11-06T04:31:32.816Z,10.50
2018-11-06T04:34:09.850Z,10.48
2018-11-06T04:36:39.650Z,10.61
2018-11-06T04:39:11.578Z,10.50
2018-11-06T04:41:41.261Z,10.33
2018-11-06T04:44:11.641Z,10.20
2018-11-06T04:46:41.475Z,10.24
2018-11-06T04:49:11.390Z,10.26
2018-11-06T04:51:41.152Z,10.07
2018-11-06T04:54:10.999Z,10.04
2018-11-06T04:56:40.774Z,9.95
2018-11-06T04:59:10.551Z,9.88
2018-11-06T05:01:40.505Z,9.78
2018-11-06T05:04:10.409Z,9.71
2018-11-06T05:06:40.346Z,9.71
2018-11-06T05:09:10.330Z,9.83
2018-11-06T05:11:40.066Z,9.77
2018-11-06T05:14:09.861Z,9.88
2018-11-06T05:16:39.571Z,9.91
2018-11-06T05:19:09.558Z,9.91
2018-11-06T05:21:41.164Z,10.06
2018-11-06T05:24:10.901Z,10.18
2018-11-06T05:26:40.637Z,10.09
2018-11-06T05:29:11.051Z,10.00
2018-11-06T05:31:41.533Z,10.03
2018-11-06T05:34:11.284Z,10.10
2018-11-06T05:36:41.191Z,10.00
2018-11-06T05:39:12.140Z,10.13
2018-11-06T05:41:41.824Z,10.15
2018-11-06T05:44:17.971Z,10.21
2018-11-06T05:46:47.823Z,10.21
2018-11-06T05:49:17.658Z,10.19
2018-11-06T05:51:47.400Z,10.26
2018-11-06T05:54:17.152Z,10.15
2018-11-06T05:56:46.958Z,10.17
2018-11-06T05:59:16.878Z,10.04
2018-11-06T06:08:24.325Z,9.77
2018-11-06T06:14:16.846Z,9.75
2018-11-06T06:16:49.188Z,9.74
2018-11-06T06:19:20.801Z,9.78
2018-11-06T06:21:52.716Z,9.98
2018-11-06T06:24:22.546Z,9.99
2018-11-06T06:26:54.101Z,9.83
2018-11-06T06:29:24.709Z,9.64
2018-11-06T06:31:54.988Z,9.58
2018-11-06T06:34:25.836Z,9.77
2018-11-06T06:36:55.696Z,9.94
2018-11-06T06:39:25.662Z,9.98
2018-11-06T06:41:55.462Z,10.00
2018-11-06T06:44:25.441Z,10.06
2018-11-06T06:46:55.169Z,10.04
2018-11-06T06:49:25.030Z,9.91
2018-11-06T06:51:54.980Z,9.97
2018-11-06T06:54:25.897Z,9.88
2018-11-06T06:56:55.890Z,9.96
2018-11-06T06:59:25.791Z,9.95
2018-11-06T07:01:56.295Z,9.97
2018-11-06T07:04:26.159Z,9.97
2018-11-06T07:06:56.132Z,9.99
2018-11-06T07:09:26.042Z,10.23
2018-11-06T07:11:55.909Z,10.15
2018-11-06T07:14:25.826Z,10.27
2018-11-06T07:16:55.701Z,10.38
2018-11-06T07:19:25.395Z,10.59
2018-11-06T07:21:55.393Z,10.86
2018-11-06T07:24:25.309Z,10.87
2018-11-06T07:26:55.075Z,10.97
2018-11-06T07:29:24.881Z,11.03
2018-11-06T07:31:54.895Z,11.21
2018-11-06T07:34:24.941Z,11.30
2018-11-06T07:36:54.645Z,11.27
2018-11-06T07:39:24.613Z,11.35
2018-11-06T07:41:54.475Z,11.69
2018-11-06T07:44:24.337Z,11.76
2018-11-06T07:46:54.126Z,11.84
2018-11-06T07:49:23.802Z,11.91
2018-11-06T07:51:53.833Z,11.95
2018-11-06T07:54:23.576Z,12.04
2018-11-06T07:56:53.400Z,12.16
2018-11-06T07:59:23.227Z,12.44
2018-11-06T08:01:53.173Z,12.40
2018-11-06T08:04:22.930Z,12.58
2018-11-06T08:06:52.854Z,12.57
2018-11-06T08:09:23.072Z,12.29
2018-11-06T08:11:52.781Z,12.17
2018-11-06T08:14:22.771Z,12.24
2018-11-06T08:16:52.652Z,12.08
2018-11-06T08:19:22.360Z,12.08
2018-11-06T08:21:52.278Z,12.10
2018-11-06T08:24:22.269Z,11.98
2018-11-06T08:26:51.963Z,11.98
2018-11-06T08:29:21.759Z,11.95
2018-11-06T08:31:51.771Z,12.06
2018-11-06T08:34:21.349Z,12.30
2018-11-06T08:36:51.110Z,12.37
2018-11-06T08:39:21.819Z,12.55
2018-11-06T08:41:51.558Z,12.62
2018-11-06T08:44:21.304Z,12.68
2018-11-06T08:46:50.985Z,12.56
2018-11-06T08:49:23.940Z,12.51
2018-11-06T08:51:53.810Z,12.76
2018-11-06T08:54:24.012Z,12.98
2018-11-06T08:56:53.734Z,12.99
2018-11-06T08:59:23.639Z,12.99
2018-11-06T09:01:53.806Z,13.25
2018-11-06T09:04:24.485Z,13.20
2018-11-06T09:06:54.377Z,13.24
2018-11-06T09:09:24.206Z,13.23
2018-11-06T09:11:53.939Z,13.55
2018-11-06T09:14:23.801Z,13.48
2018-11-06T09:16:53.807Z,14.20
2018-11-06T09:19:23.412Z,14.44
2018-11-06T09:21:54.055Z,14.92
2018-11-06T09:24:23.950Z,14.89
2018-11-06T09:26:53.742Z,15.07
2018-11-06T09:29:23.603Z,15.00
2018-11-06T09:31:53.585Z,15.37
2018-11-06T09:34:23.376Z,15.11
2018-11-06T09:36:53.199Z,15.25
2018-11-06T09:39:23.093Z,16.12
2018-11-06T09:41:53.373Z,15.88
2018-11-06T09:44:23.294Z,16.70
2018-11-06T09:46:53.142Z,17.26
2018-11-06T09:49:23.934Z,17.51
2018-11-06T09:51:53.718Z,17.55
2018-11-06T09:54:23.702Z,17.77
2018-11-06T09:56:53.628Z,17.67
2018-11-06T09:59:25.207Z,18.09
2018-11-06T10:01:55.040Z,17.85
2018-11-06T10:04:24.823Z,17.71
2018-11-06T10:06:54.873Z,17.65
2018-11-06T10:09:24.669Z,17.70
2018-11-06T10:11:54.463Z,18.03
2018-11-06T10:14:24.310Z,17.94
2018-11-06T10:16:54.273Z,18.07
2018-11-06T10:19:23.999Z,18.20
2018-11-06T10:21:53.914Z,18.35
2018-11-06T10:24:23.624Z,17.77
2018-11-06T10:26:53.467Z,18.04
2018-11-06T10:29:23.269Z,18.24
2018-11-06T10:31:53.114Z,18.27
2018-11-06T10:34:23.126Z,18.34
2018-11-06T10:36:52.884Z,18.26
2018-11-06T10:39:22.706Z,18.52
2018-11-06T10:41:52.495Z,18.37
2018-11-06T10:44:22.597Z,18.30
2018-11-06T10:46:52.316Z,18.55
2018-11-06T10:49:22.249Z,18.59
2018-11-06T10:51:52.120Z,18.58
2018-11-06T10:54:21.924Z,18.22
2018-11-06T10:56:51.924Z,18.53
2018-11-06T10:59:21.755Z,18.72
2018-11-06T11:01:56.774Z,18.89
2018-11-06T11:04:27.552Z,18.67
2018-11-06T11:06:57.586Z,18.82
2018-11-06T11:09:27.246Z,19.10
2018-11-06T11:11:57.148Z,18.79
2018-11-06T11:14:26.918Z,19.10
2018-11-06T11:16:56.846Z,18.79
2018-11-06T11:19:26.593Z,18.61
2018-11-06T11:21:56.337Z,18.60
2018-11-06T11:24:26.073Z,18.82
2018-11-06T11:26:56.926Z,18.55
2018-11-06T11:29:28.357Z,18.90
2018-11-06T11:31:58.153Z,19.31
2018-11-06T11:34:27.948Z,19.32
2018-11-06T11:36:59.152Z,19.31
2018-11-06T11:39:28.941Z,19.24
2018-11-06T11:41:58.775Z,19.57
2018-11-06T11:44:29.090Z,19.59
2018-11-06T11:46:59.024Z,19.17
2018-11-06T11:49:28.973Z,18.71
2018-11-06T11:51:58.814Z,18.81
2018-11-06T11:54:28.585Z,19.01
2018-11-06T11:56:58.468Z,18.98
2018-11-06T11:59:28.273Z,19.12
2018-11-06T12:02:00.020Z,19.37
2018-11-06T12:04:29.664Z,19.02
2018-11-06T12:06:59.458Z,18.90
2018-11-06T12:09:29.201Z,18.97
2018-11-06T12:11:58.900Z,19.39
2018-11-06T12:14:29.089Z,19.23
2018-11-06T12:16:58.768Z,19.29
2018-11-06T12:19:28.705Z,19.47
2018-11-06T12:21:58.551Z,19.30
2018-11-06T12:24:28.340Z,19.70
2018-11-06T12:26:58.747Z,19.98
2018-11-06T12:29:28.705Z,19.49
2018-11-06T12:31:58.867Z,19.40
2018-11-06T12:34:28.548Z,19.51
2018-11-06T12:36:58.668Z,19.76
2018-11-06T12:39:28.545Z,19.65
2018-11-06T12:41:58.387Z,19.49
2018-11-06T12:44:28.384Z,19.43
2018-11-06T12:46:58.221Z,19.58
2018-11-06T12:49:28.174Z,19.61
2018-11-06T12:51:57.984Z,19.58
2018-11-06T12:54:27.801Z,19.63
2018-11-06T12:56:57.653Z,19.81
2018-11-06T12:59:27.443Z,20.12
2018-11-06T13:01:57.461Z,20.20
2018-11-06T13:04:27.204Z,20.32
2018-11-06T13:06:56.945Z,20.53
2018-11-06T13:09:26.685Z,20.42
2018-11-06T13:11:56.603Z,20.65
2018-11-06T13:14:27.013Z,20.77
2018-11-06T13:16:57.059Z,20.66
2018-11-06T13:19:27.010Z,20.43
2018-11-06T13:21:56.738Z,20.70
2018-11-06T13:24:26.743Z,20.50
2018-11-06T13:26:57.373Z,20.70
2018-11-06T13:29:28.044Z,20.64
2018-11-06T13:31:57.850Z,20.55
2018-11-06T13:34:27.648Z,20.47
2018-11-06T13:36:57.498Z,20.36
2018-11-06T13:39:27.415Z,20.67
2018-11-06T13:41:57.273Z,20.23
2018-11-06T13:44:27.732Z,19.68
2018-11-06T13:46:57.238Z,19.41
2018-11-06T13:49:27.095Z,19.15
2018-11-06T13:51:57.031Z,19.11
2018-11-06T13:54:26.878Z,18.87
2018-11-06T13:56:56.650Z,18.83
2018-11-06T13:59:26.594Z,18.77
2018-11-06T14:01:56.376Z,18.86
2018-11-06T14:04:27.054Z,18.70
2018-11-06T14:06:56.917Z,18.66
2018-11-06T14:09:27.044Z,18.65
2018-11-06T14:11:56.870Z,18.67
2018-11-06T14:17:04.328Z,18.55
2018-11-06T14:19:34.241Z,18.59
2018-11-06T14:22:04.051Z,18.51
2018-11-06T14:24:33.775Z,18.60
2018-11-06T14:27:03.509Z,18.85
2018-11-06T14:29:33.333Z,18.79
2018-11-06T14:32:03.891Z,18.81
2018-11-06T14:34:34.208Z,18.76
2018-11-06T14:37:03.961Z,18.74
2018-11-06T14:39:33.882Z,18.44
2018-11-06T14:42:03.892Z,18.33
2018-11-06T14:44:34.013Z,18.14
2018-11-06T14:47:04.842Z,18.10
2018-11-06T14:49:35.424Z,18.08
2018-11-06T14:52:05.801Z,18.01
2018-11-06T14:54:35.829Z,18.00
2018-11-06T14:57:06.591Z,17.93
2018-11-06T14:59:36.594Z,17.82
2018-11-06T15:02:06.519Z,17.69
2018-11-06T15:04:36.528Z,17.46
2018-11-06T15:07:06.843Z,17.24
2018-11-06T15:09:36.738Z,16.94
2018-11-06T15:12:06.484Z,16.79
2018-11-06T15:14:36.357Z,16.61
2018-11-06T15:17:06.600Z,16.54
2018-11-06T15:19:36.626Z,16.46
2018-11-06T15:22:06.650Z,16.32
2018-11-06T15:24:36.390Z,16.15
2018-11-06T15:27:06.324Z,15.99
2018-11-06T15:29:36.201Z,15.88
2018-11-06T15:32:06.146Z,15.66
2018-11-06T15:34:36.137Z,15.54
2018-11-06T15:37:06.445Z,15.30
2018-11-06T15:39:36.368Z,15.12
2018-11-06T15:42:06.265Z,14.92
2018-11-06T15:44:36.165Z,14.77
2018-11-06T15:47:06.319Z,14.61
2018-11-06T15:49:36.222Z,14.97
2018-11-06T15:52:06.464Z,15.19
2018-11-06T15:54:36.460Z,15.32
2018-11-06T15:57:06.833Z,15.36
2018-11-06T15:59:36.631Z,15.44
2018-11-06T16:02:06.938Z,15.36
2018-11-06T16:04:36.813Z,15.32
2018-11-06T16:07:07.233Z,15.01
2018-11-06T16:09:37.028Z,15.11
2018-11-06T16:12:06.957Z,14.94
2018-11-06T16:14:36.708Z,15.03
2018-11-06T16:17:07.658Z,14.98
2018-11-06T16:19:37.791Z,14.88
2018-11-06T16:22:07.499Z,14.84
2018-11-06T16:24:37.972Z,14.81
2018-11-06T16:27:08.449Z,15.03
2018-11-06T16:29:38.383Z,15.06
2018-11-06T16:32:08.116Z,15.20
2018-11-06T16:34:38.041Z,15.33
2018-11-06T16:37:08.266Z,15.27
2018-11-06T16:39:37.927Z,15.28
2018-11-06T16:42:07.834Z,15.29
2018-11-06T16:44:37.623Z,15.35
2018-11-06T16:47:07.590Z,15.23
2018-11-06T16:49:44.826Z,15.38
2018-11-06T16:52:22.637Z,15.41
2018-11-06T16:54:58.903Z,15.10
2018-11-06T16:57:41.744Z,15.29
2018-11-06T17:00:20.203Z,15.36
2018-11-06T17:02:53.892Z,15.33
2018-11-06T17:05:23.835Z,15.29
2018-11-06T17:07:53.657Z,15.31
2018-11-06T17:10:23.438Z,15.22
2018-11-06T17:12:53.532Z,15.27
2018-11-06T17:15:24.154Z,15.39
2018-11-06T17:17:55.072Z,15.26
2018-11-06T17:20:24.910Z,15.11
2018-11-06T17:22:54.740Z,15.09
2018-11-06T17:25:24.795Z,15.02
2018-11-06T17:27:55.165Z,14.88
2018-11-06T17:30:25.058Z,14.82
2018-11-06T17:32:55.437Z,14.77
2018-11-06T17:35:25.244Z,14.87
2018-11-06T17:37:55.716Z,14.69
2018-11-06T17:40:25.584Z,14.48
2018-11-06T17:42:56.387Z,14.69
2018-11-06T17:45:26.350Z,14.55
2018-11-06T17:47:56.101Z,14.56
2018-11-06T17:50:25.900Z,14.46
2018-11-06T17:52:55.777Z,14.50
2018-11-06T17:55:25.854Z,14.52
2018-11-06T17:57:55.598Z,14.54
2018-11-06T18:00:25.545Z,14.37
2018-11-06T18:02:55.382Z,14.27
2018-11-06T18:05:26.196Z,14.31
2018-11-06T18:07:55.972Z,14.47
2018-11-06T18:10:25.720Z,14.37
2018-11-06T18:12:55.594Z,14.28
2018-11-06T18:15:25.386Z,14.41
2018-11-06T18:17:55.372Z,14.41
2018-11-06T18:20:25.025Z,14.27
2018-11-06T18:22:54.970Z,14.30
2018-11-06T18:25:24.810Z,14.20
2018-11-06T18:27:54.616Z,14.16
2018-11-06T18:30:24.593Z,14.25
2018-11-06T18:32:54.383Z,14.34
2018-11-06T18:35:24.910Z,14.17
2018-11-06T18:37:54.782Z,14.08
2018-11-06T18:40:24.734Z,14.01
2018-11-06T18:42:54.606Z,13.90
2018-11-06T18:45:24.590Z,13.88
2018-11-06T18:47:55.053Z,13.86
2018-11-06T18:50:24.816Z,13.77
2018-11-06T18:52:54.711Z,13.60
2018-11-06T18:55:25.230Z,13.70
2018-11-06T18:57:55.055Z,13.75
2018-11-06T19:00:25.020Z,13.71
2018-11-06T19:02:54.918Z,13.69
2018-11-06T19:05:25.698Z,13.63
2018-11-06T19:07:56.328Z,13.72
2018-11-06T19:10:26.786Z,13.60
2018-11-06T19:12:56.874Z,13.49
2018-11-06T19:15:26.751Z,13.34
2018-11-06T19:17:56.681Z,13.46
2018-11-06T19:20:26.586Z,13.36
2018-11-06T19:22:56.513Z,13.31
2018-11-06T19:25:26.370Z,13.49
2018-11-06T19:27:56.305Z,13.31
2018-11-06T19:30:26.238Z,13.21
2018-11-06T19:32:56.120Z,13.20
2018-11-06T19:35:39.965Z,13.27
2018-11-06T19:39:03.300Z,13.05
2018-11-06T19:44:36.859Z,13.12
2018-11-06T19:47:25.017Z,13.05
2018-11-06T19:50:10.209Z,12.99
2018-11-06T19:52:51.119Z,13.04
2018-11-06T19:55:26.906Z,12.88
2018-11-06T19:58:14.071Z,12.99
2018-11-06T20:01:01.853Z,12.84
2018-11-06T20:06:49.098Z,12.72
2018-11-06T20:09:55.835Z,12.72
2018-11-06T20:18:40.335Z,12.80
2018-11-06T20:24:17.634Z,12.85
2018-11-06T20:27:02.966Z,12.80
2018-11-06T20:29:39.770Z,12.80
2018-11-06T20:32:15.092Z,12.77
2018-11-06T20:34:47.090Z,12.72
2018-11-06T20:37:22.557Z,12.80
2018-11-06T20:39:53.270Z,12.75
2018-11-06T20:42:25.038Z,12.86
2018-11-06T20:44:55.446Z,12.66
2018-11-06T20:47:25.484Z,12.72
2018-11-06T20:49:55.808Z,12.84
2018-11-06T20:52:26.590Z,12.81
2018-11-06T20:54:56.588Z,12.79
2018-11-06T20:57:27.243Z,12.88
2018-11-06T20:59:57.211Z,12.77
2018-11-06T21:02:26.946Z,12.62
2018-11-06T21:04:56.686Z,12.49
2018-11-06T21:07:26.526Z,12.57
2018-11-06T21:09:56.430Z,12.72
2018-11-06T21:12:26.345Z,12.69
2018-11-06T21:14:56.871Z,12.82
2018-11-06T21:17:26.694Z,12.67
2018-11-06T21:19:57.006Z,12.67
2018-11-06T21:22:26.847Z,12.72
2018-11-06T21:24:56.782Z,12.66
2018-11-06T21:27:26.541Z,12.53
2018-11-06T21:29:56.421Z,12.55
2018-11-06T21:32:26.281Z,12.58
2018-11-06T21:34:56.885Z,12.56
2018-11-06T21:37:26.736Z,12.56
2018-11-06T21:39:56.509Z,12.57
2018-11-06T21:42:26.291Z,12.51
2018-11-06T21:44:56.148Z,12.40
2018-11-06T21:47:25.975Z,12.53
2018-11-06T21:49:56.019Z,12.49
2018-11-06T21:52:25.747Z,12.46
2018-11-06T21:54:55.645Z,12.46
2018-11-06T21:57:25.399Z,12.45
2018-11-06T21:59:55.182Z,12.35
2018-11-06T22:02:24.961Z,12.33
2018-11-06T22:04:54.695Z,12.27
2018-11-06T22:07:24.569Z,12.21
2018-11-06T22:09:54.445Z,12.14
2018-11-06T22:12:24.315Z,11.95
2018-11-06T22:14:54.201Z,11.97
2018-11-06T22:17:23.926Z,11.98
2018-11-06T22:19:53.813Z,11.95
2018-11-06T22:22:23.779Z,11.92
2018-11-06T22:24:53.479Z,11.84
2018-11-06T22:27:23.228Z,11.82
2018-11-06T22:29:53.023Z,11.84
2018-11-06T22:32:22.804Z,11.72
2018-11-06T22:34:52.619Z,11.73
2018-11-06T22:37:22.440Z,11.75
2018-11-06T22:39:52.239Z,11.78
2018-11-06T22:42:22.104Z,11.78
2018-11-06T22:44:51.900Z,11.73
2018-11-06T22:47:21.694Z,11.65
2018-11-06T22:49:51.674Z,11.71
2018-11-06T22:52:21.749Z,11.64
2018-11-06T22:54:51.699Z,11.57
2018-11-06T22:57:21.645Z,11.53
2018-11-06T22:59:52.410Z,11.51
2018-11-06T23:02:22.467Z,11.59
2018-11-06T23:04:52.374Z,11.60
2018-11-06T23:07:27.422Z,11.55
2018-11-06T23:09:57.598Z,11.55
2018-11-06T23:12:28.151Z,11.39
2018-11-06T23:14:58.058Z,11.33
2018-11-06T23:17:27.833Z,11.27
2018-11-06T23:19:58.186Z,11.24
2018-11-06T23:22:28.073Z,11.27
2018-11-06T23:24:58.242Z,11.19
2018-11-06T23:27:28.097Z,11.11
2018-11-06T23:29:57.828Z,11.18
2018-11-06T23:32:27.707Z,11.09
2018-11-06T23:34:57.575Z,11.00
2018-11-06T23:37:27.433Z,10.88
2018-11-06T23:39:57.278Z,10.97
2018-11-06T23:42:27.077Z,10.85
2018-11-06T23:44:57.166Z,10.72
2018-11-06T23:47:27.054Z,10.66
2018-11-06T23:49:57.499Z,10.66
2018-11-06T23:52:27.673Z,10.71
2018-11-06T23:54:58.504Z,10.81
2018-11-06T23:57:29.656Z,10.93
